Time;durP1;ratioP1;P1;durP2;ratioP2;P2;SDS_P1;SDS_P2;PMS_P1;PMS_P2;Temp;Humidity;BMP_temperature;BMP_pressure;BME280_temperature;BME280_humidity;BME280_pressure;Samples;Min_cycle;Max_cycle;Signal;HPM_P1;HPM_P2
2021/05/28 00:02:17;;;;;;;18.67;3.88;;;;;;;10.07;96.36;101848.00;6174910;28;20047;-76
2021/05/28 00:05:19;;;;;;;19.08;4.18;;;;;;;9.86;97.35;101851.34;6175241;28;20050;-76
2021/05/28 00:08:20;;;;;;;23.00;4.05;;;;;;;10.03;96.68;101854.25;6175096;28;20080;-76
2021/05/28 00:11:21;;;;;;;10.80;3.33;;;;;;;9.96;97.53;101849.28;6174940;28;20125;-76
2021/05/28 00:14:22;;;;;;;15.73;3.20;;;;;;;9.98;95.70;101855.34;6174334;28;20109;-76
2021/05/28 00:17:23;;;;;;;10.82;3.25;;;;;;;9.87;97.64;101848.66;6174819;28;20050;-76
2021/05/28 00:20:24;;;;;;;19.45;4.63;;;;;;;9.96;97.26;101854.53;6174821;28;20521;-76
2021/05/28 00:23:25;;;;;;;15.32;3.38;;;;;;;9.93;96.82;101852.84;6174430;28;20057;-76
2021/05/28 00:26:26;;;;;;;23.52;4.18;;;;;;;9.79;98.15;101858.56;6174907;28;20074;-76
2021/05/28 00:29:27;;;;;;;16.33;4.15;;;;;;;9.77;97.37;101862.16;6174341;28;20082;-76
2021/05/28 00:32:28;;;;;;;13.88;3.65;;;;;;;9.95;96.58;101865.91;6174493;28;20622;-76
2021/05/28 00:35:30;;;;;;;12.55;3.38;;;;;;;9.73;98.05;101857.91;6174464;28;20050;-76
2021/05/28 00:38:30;;;;;;;12.40;3.42;;;;;;;9.91;97.01;101866.03;6174580;28;20051;-76
2021/05/28 00:41:31;;;;;;;19.35;3.58;;;;;;;9.80;97.23;101865.50;6174347;28;20410;-76
2021/05/28 00:44:33;;;;;;;13.05;3.33;;;;;;;9.66;98.49;101878.22;6174230;28;20486;-76
2021/05/28 00:47:34;;;;;;;20.45;3.75;;;;;;;9.81;97.33;101875.13;6174328;28;20058;-76
2021/05/28 00:50:36;;;;;;;14.80;3.28;;;;;;;9.72;96.81;101871.91;6173856;28;20410;-76
2021/05/28 00:53:37;;;;;;;7.97;3.20;;;;;;;9.69;98.44;101885.16;6174112;28;20050;-76
2021/05/28 00:56:38;;;;;;;12.00;3.40;;;;;;;9.58;98.33;101888.09;6174255;28;20054;-76
2021/05/28 00:59:40;;;;;;;8.98;3.30;;;;;;;9.64;97.49;101885.31;6174139;28;20521;-76
2021/05/28 01:02:41;;;;;;;18.98;3.65;;;;;;;9.66;98.35;101896.59;6173765;28;20055;-76
2021/05/28 01:05:42;;;;;;;11.23;3.00;;;;;;;9.53;98.38;101900.50;6174146;28;20057;-76
2021/05/28 01:08:43;;;;;;;14.82;3.63;;;;;;;9.42;98.68;101908.72;6173894;28;20050;-76
2021/05/28 01:11:44;;;;;;;14.38;3.70;;;;;;;9.48;98.33;101903.25;6173717;28;20521;-76
2021/05/28 01:14:45;;;;;;;14.38;4.20;;;;;;;9.34;99.11;101913.31;6173841;28;20094;-76
2021/05/28 01:17:45;;;;;;;16.85;4.03;;;;;;;9.31;98.82;101918.63;6173717;28;20051;-76
2021/05/28 01:20:47;;;;;;;16.08;4.05;;;;;;;9.28;100.00;101916.13;6173771;28;20130;-76
2021/05/28 01:23:49;;;;;;;17.50;4.13;;;;;;;9.25;99.98;101917.06;6173462;28;20094;-76
2021/05/28 01:26:50;;;;;;;13.45;3.30;;;;;;;9.23;98.87;101931.16;6178032;28;20058;-76
2021/05/28 01:29:51;;;;;;;15.57;3.75;;;;;;;9.04;100.00;101934.28;6178367;28;20502;-76
2021/05/28 01:32:52;;;;;;;19.88;3.58;;;;;;;9.25;98.71;101929.31;6178433;28;20054;-76
2021/05/28 01:35:55;;;;;;;18.58;4.72;;;;;;;9.04;99.27;101930.81;6178273;28;20513;-76
2021/05/28 01:38:57;;;;;;;13.38;3.75;;;;;;;8.91;100.00;101926.81;6178270;28;20454;-76
2021/05/28 01:41:58;;;;;;;13.55;4.13;;;;;;;8.87;100.00;101937.38;6178367;28;20051;-76
2021/05/28 01:45:02;;;;;;;16.13;3.80;;;;;;;8.89;100.00;101948.66;6177646;28;20051;-76
2021/05/28 01:48:03;;;;;;;17.42;3.75;;;;;;;8.80;100.00;101942.81;6178293;28;20051;-76
2021/05/28 01:51:06;;;;;;;12.85;3.58;;;;;;;8.77;100.00;101948.16;6177917;28;20047;-76
2021/05/28 01:54:08;;;;;;;13.48;4.10;;;;;;;8.78;100.00;101945.47;6178201;28;20106;-76
2021/05/28 01:57:10;;;;;;;11.38;3.47;;;;;;;8.76;100.00;101944.63;6178240;28;20490;-76
2021/05/28 02:00:14;;;;;;;12.68;3.53;;;;;;;8.75;99.93;101947.31;6178118;28;20055;-76
2021/05/28 02:03:15;;;;;;;9.68;3.40;;;;;;;8.82;98.95;101949.75;6176837;28;20085;-76
2021/05/28 02:06:16;;;;;;;11.80;3.42;;;;;;;8.68;98.71;101944.00;6178001;28;20062;-76
2021/05/28 02:09:18;;;;;;;13.30;3.63;;;;;;;8.54;100.00;101956.56;6177706;28;20709;-76
2021/05/28 02:12:21;;;;;;;12.23;3.45;;;;;;;8.58;99.48;101945.13;6177698;28;20070;-76
2021/05/28 02:15:22;;;;;;;17.58;4.00;;;;;;;8.64;98.78;101960.72;6177829;28;20153;-76
2021/05/28 02:18:23;;;;;;;17.20;3.58;;;;;;;8.42;99.82;101949.91;6177598;28;20051;-76
2021/05/28 02:21:24;;;;;;;14.25;3.55;;;;;;;8.49;100.00;101953.22;6177387;28;20046;-76
2021/05/28 02:24:26;;;;;;;7.70;3.75;;;;;;;8.33;100.00;101953.56;6177403;28;20047;-76
2021/05/28 02:27:27;;;;;;;17.05;3.08;;;;;;;8.34;100.00;101957.91;6177590;28;20051;-76
2021/05/28 02:30:28;;;;;;;16.27;4.40;;;;;;;8.32;100.00;101956.25;6177235;28;20114;-76
2021/05/28 02:33:28;;;;;;;10.93;3.13;;;;;;;8.35;100.00;101964.88;6177047;28;20051;-76
2021/05/28 02:36:29;;;;;;;15.48;3.60;;;;;;;8.30;100.00;101958.88;6176415;28;20082;-76
2021/05/28 02:39:31;;;;;;;19.17;3.88;;;;;;;8.20;100.00;101975.72;6177166;28;20055;-76
2021/05/28 02:42:32;;;;;;;9.52;3.20;;;;;;;8.16;100.00;101984.53;6176603;28;20058;-76
2021/05/28 02:45:33;;;;;;;11.00;3.53;;;;;;;8.18;100.00;101977.53;6177159;28;20046;-76
2021/05/28 02:48:34;;;;;;;10.10;3.60;;;;;;;8.22;100.00;101986.16;6177258;28;20078;-76
2021/05/28 02:51:35;;;;;;;14.65;3.38;;;;;;;8.16;100.00;101987.16;6176520;28;20047;-76
2021/05/28 02:54:37;;;;;;;17.92;4.18;;;;;;;8.12;100.00;101985.50;6176998;28;20046;-76
2021/05/28 02:57:38;;;;;;;13.38;3.83;;;;;;;8.14;100.00;101992.44;6176603;28;20062;-76
2021/05/28 03:00:39;;;;;;;13.40;3.47;;;;;;;8.12;100.00;101991.59;6176804;28;20102;-76
2021/05/28 03:03:40;;;;;;;18.75;3.83;;;;;;;8.09;100.00;101991.69;6176337;28;20133;-76
2021/05/28 03:06:41;;;;;;;14.75;3.33;;;;;;;8.14;100.00;101984.59;6177055;28;20464;-76
2021/05/28 03:09:43;;;;;;;13.50;4.63;;;;;;;8.03;100.00;101990.94;6176233;28;20050;-76
2021/05/28 03:12:44;;;;;;;12.30;3.95;;;;;;;7.97;100.00;101991.97;6176266;28;20494;-76
2021/05/28 03:15:45;;;;;;;10.00;4.47;;;;;;;7.97;100.00;101994.56;6176485;28;20062;-76
2021/05/28 03:18:48;;;;;;;13.60;4.18;;;;;;;7.92;100.00;101988.59;6176118;28;20576;-76
2021/05/28 03:25:08;;;;;;;18.00;3.83;;;;;;;7.82;100.00;101993.16;6171210;28;20205;-76
2021/05/28 03:28:09;;;;;;;10.35;3.95;;;;;;;7.75;100.00;101994.19;6176051;28;20190;-76
2021/05/28 03:31:10;;;;;;;13.88;3.70;;;;;;;7.70;100.00;101989.94;6175739;28;20097;-76
2021/05/28 03:34:11;;;;;;;10.77;3.90;;;;;;;7.66;100.00;101993.53;6175864;28;20537;-76
2021/05/28 03:37:12;;;;;;;7.57;3.25;;;;;;;7.70;100.00;101996.03;6175884;28;20082;-76
2021/05/28 03:40:14;;;;;;;11.48;4.47;;;;;;;7.70;100.00;101992.56;6175530;28;20522;-76
2021/05/28 03:43:15;;;;;;;12.77;4.75;;;;;;;7.76;100.00;102006.38;6175585;28;20054;-76
2021/05/28 03:46:16;;;;;;;15.82;4.55;;;;;;;7.81;100.00;102001.91;6175910;28;20434;-76
2021/05/28 03:49:17;;;;;;;11.77;4.53;;;;;;;7.92;100.00;102006.06;6174379;28;20138;-76
2021/05/28 03:52:18;;;;;;;15.15;5.43;;;;;;;8.10;100.00;102016.97;6175429;28;20043;-76
2021/05/28 03:55:20;;;;;;;20.35;7.43;;;;;;;8.10;100.00;102031.81;6175712;28;20058;-76
2021/05/28 03:58:21;;;;;;;19.55;7.80;;;;;;;8.02;100.00;102024.13;6175225;28;20051;-76
2021/05/28 04:01:22;;;;;;;23.42;8.85;;;;;;;8.00;100.00;102030.31;6175372;28;20050;-75
2021/05/28 04:04:22;;;;;;;31.95;10.40;;;;;;;7.93;100.00;102029.56;6175425;28;20528;-76
2021/05/28 04:07:25;;;;;;;22.77;9.30;;;;;;;7.70;100.00;102032.66;6177044;28;20050;-76
2021/05/28 04:10:26;;;;;;;25.92;9.05;;;;;;;7.66;100.00;102031.00;6176840;28;20458;-75
2021/05/28 04:13:31;;;;;;;17.30;9.10;;;;;;;7.68;100.00;102036.22;6176495;28;20046;-76
2021/05/28 04:16:32;;;;;;;24.75;9.68;;;;;;;7.80;100.00;102030.72;6177493;28;20058;-75
2021/05/28 04:19:32;;;;;;;24.00;9.75;;;;;;;7.69;100.00;102037.94;6178902;28;20496;-76
2021/05/28 04:22:33;;;;;;;24.50;9.57;;;;;;;7.70;100.00;102040.53;6178527;28;20050;-76
2021/05/28 04:25:35;;;;;;;25.83;9.77;;;;;;;7.77;100.00;102046.50;6179035;28;20051;-76
2021/05/28 04:28:36;;;;;;;23.13;9.80;;;;;;;7.72;100.00;102049.22;6179246;28;20429;-76
2021/05/28 04:31:37;;;;;;;20.95;8.80;;;;;;;7.71;100.00;102049.22;6184746;28;20047;-76
2021/05/28 04:34:38;;;;;;;31.98;10.73;;;;;;;7.77;100.00;102047.38;6186373;28;20054;-76
2021/05/28 04:37:39;;;;;;;21.50;9.85;;;;;;;7.79;100.00;102052.56;6185835;28;20091;-76
2021/05/28 04:40:41;;;;;;;25.23;11.48;;;;;;;7.81;100.00;102051.66;6232315;23;20120;-76
2021/05/28 04:43:42;;;;;;;24.15;10.15;;;;;;;7.96;100.00;102054.81;6222473;28;20493;-76
2021/05/28 04:46:43;;;;;;;25.17;9.65;;;;;;;7.96;100.00;102055.69;6223097;28;20185;-76
2021/05/28 04:49:44;;;;;;;22.92;9.15;;;;;;;7.93;100.00;102062.72;6202069;28;20050;-77
2021/05/28 04:52:46;;;;;;;23.35;12.07;;;;;;;7.97;100.00;102060.03;6206777;28;20042;-76
2021/05/28 04:55:48;;;;;;;22.33;10.20;;;;;;;7.88;100.00;102073.28;6221161;28;20042;-76
2021/05/28 04:58:48;;;;;;;24.42;10.48;;;;;;;7.87;100.00;102074.19;6214414;28;20053;-76
2021/05/28 05:01:49;;;;;;;24.92;11.40;;;;;;;8.04;100.00;102069.47;6222440;28;20050;-76
2021/05/28 05:04:50;;;;;;;23.67;9.40;;;;;;;8.04;100.00;102068.59;6222841;28;20420;-77
2021/05/28 05:07:51;;;;;;;26.83;10.85;;;;;;;8.07;100.00;102077.25;6222569;28;20050;-75
2021/05/28 05:10:54;;;;;;;27.80;12.20;;;;;;;8.03;100.00;102080.81;6215796;28;20133;-76
2021/05/28 05:13:55;;;;;;;27.23;11.85;;;;;;;7.93;100.00;102092.38;6206124;28;20058;-76
2021/05/28 05:16:56;;;;;;;24.83;11.98;;;;;;;7.96;100.00;102081.00;6197844;28;20100;-76
2021/05/28 05:19:57;;;;;;;22.05;11.20;;;;;;;8.15;100.00;102090.19;6198090;28;20129;-76
2021/05/28 05:22:58;;;;;;;24.13;12.30;;;;;;;7.99;100.00;102089.63;6197669;28;20057;-76
2021/05/28 05:26:00;;;;;;;21.15;10.10;;;;;;;8.02;100.00;102092.19;6198199;28;20050;-76
2021/05/28 05:29:02;;;;;;;29.95;11.90;;;;;;;8.17;100.00;102101.47;6197995;28;20050;-76
2021/05/28 05:32:03;;;;;;;22.58;11.02;;;;;;;8.25;100.00;102096.94;6197374;28;20413;-76
2021/05/28 05:35:05;;;;;;;23.77;11.45;;;;;;;8.24;100.00;102112.69;6197917;28;20046;-76
2021/05/28 05:38:08;;;;;;;24.25;10.32;;;;;;;8.30;100.00;102110.78;6197840;28;20050;-76
2021/05/28 05:41:10;;;;;;;19.30;10.82;;;;;;;8.38;100.00;102114.13;6197572;28;20060;-76
2021/05/28 05:44:11;;;;;;;21.83;10.15;;;;;;;8.50;100.00;102114.78;6197717;28;20113;-76
2021/05/28 05:47:12;;;;;;;27.27;10.57;;;;;;;8.49;100.00;102110.41;6197744;28;20078;-77
2021/05/28 05:50:15;;;;;;;21.13;11.27;;;;;;;8.58;100.00;102104.94;6197595;28;20137;-76
2021/05/28 05:53:16;;;;;;;17.15;10.02;;;;;;;8.58;100.00;102108.47;6197325;28;20609;-76
2021/05/28 05:56:18;;;;;;;18.77;8.85;;;;;;;8.66;100.00;102110.03;6197517;28;20077;-76
2021/05/28 05:59:19;;;;;;;19.85;9.85;;;;;;;8.60;100.00;102101.41;6197484;28;20065;-76
2021/05/28 06:02:20;;;;;;;18.23;9.57;;;;;;;8.73;100.00;102109.84;6214559;28;20493;-76
2021/05/28 06:05:21;;;;;;;19.20;9.20;;;;;;;8.77;100.00;102111.50;6218010;28;20173;-76
2021/05/28 06:08:22;;;;;;;16.35;10.10;;;;;;;8.80;100.00;102116.66;6215488;28;20057;-75
2021/05/28 06:11:23;;;;;;;22.08;10.05;;;;;;;8.76;100.00;102120.25;6214205;28;20042;-76
2021/05/28 06:14:24;;;;;;;20.17;10.05;;;;;;;8.97;100.00;102131.97;6225900;28;20073;-76
2021/05/28 06:17:25;;;;;;;26.30;11.05;;;;;;;8.92;100.00;102133.00;6226437;28;20058;-76
2021/05/28 06:20:26;;;;;;;18.38;10.88;;;;;;;8.99;100.00;102127.56;6223255;28;20057;-75
2021/05/28 06:23:27;;;;;;;23.70;10.23;;;;;;;8.98;100.00;102133.69;6220201;28;20424;-76
2021/05/28 06:26:28;;;;;;;20.48;12.20;;;;;;;9.02;100.00;102137.97;6226080;28;20054;-76
2021/05/28 06:29:29;;;;;;;29.55;10.65;;;;;;;9.27;98.50;102140.00;6225643;28;20049;-76
2021/05/28 06:32:30;;;;;;;18.45;10.52;;;;;;;9.25;100.00;102132.16;6225831;28;20412;-76
2021/05/28 06:35:31;;;;;;;23.80;11.02;;;;;;;9.42;99.49;102133.50;6225576;28;20054;-76
2021/05/28 06:38:32;;;;;;;23.38;12.30;;;;;;;9.43;99.32;102129.97;6225856;28;20054;-76
2021/05/28 06:41:34;;;;;;;23.77;12.23;;;;;;;9.34;99.48;102134.53;6213450;28;20600;-76
2021/05/28 06:44:35;;;;;;;32.75;14.27;;;;;;;9.34;100.00;102144.19;6202182;28;20046;-75
2021/05/28 06:47:36;;;;;;;33.10;18.75;;;;;;;9.53;99.69;102140.16;6211596;28;20109;-76
2021/05/28 06:50:40;;;;;;;38.28;19.70;;;;;;;9.60;98.78;102139.09;6221963;28;20425;-75
2021/05/28 06:53:42;;;;;;;38.95;24.00;;;;;;;9.79;98.31;102133.34;6208158;28;20528;-75
2021/05/28 06:56:43;;;;;;;45.15;25.58;;;;;;;9.98;97.16;102131.91;6220143;28;20049;-75
2021/05/28 06:59:44;;;;;;;45.20;25.73;;;;;;;9.98;97.43;102139.81;6225253;28;20053;-76
2021/05/28 07:02:45;;;;;;;51.33;27.15;;;;;;;9.95;96.06;102147.78;6224625;28;20100;-75
2021/05/28 07:05:46;;;;;;;46.47;26.48;;;;;;;9.83;95.69;102158.63;6225023;28;20088;-76
2021/05/28 07:08:47;;;;;;;45.22;24.38;;;;;;;9.80;97.11;102167.44;6224828;28;20137;-76
2021/05/28 07:11:48;;;;;;;37.35;22.00;;;;;;;10.17;93.79;102163.78;6224840;28;20089;-76
2021/05/28 07:14:49;;;;;;;34.28;20.60;;;;;;;10.07;94.50;102154.44;6224853;28;20061;-75
2021/05/28 07:17:50;;;;;;;33.63;18.67;;;;;;;9.83;94.00;102158.63;6225165;28;20053;-76
2021/05/28 07:20:51;;;;;;;30.25;19.42;;;;;;;10.02;92.96;102157.19;6224591;28;20416;-75
2021/05/28 07:23:53;;;;;;;31.83;20.13;;;;;;;10.16;93.04;102162.06;6224310;28;20120;-76
2021/05/28 07:26:54;;;;;;;29.38;19.08;;;;;;;10.28;92.19;102161.75;6224535;28;20053;-75
2021/05/28 07:29:55;;;;;;;26.63;18.17;;;;;;;10.20;94.11;102163.69;6224637;28;20049;-76
2021/05/28 07:32:56;;;;;;;29.55;17.52;;;;;;;10.38;93.54;102170.22;6224122;28;20046;-76
2021/05/28 07:35:57;;;;;;;27.75;16.63;;;;;;;10.34;91.87;102164.19;6224388;28;20141;-76
2021/05/28 07:38:58;;;;;;;31.52;16.88;;;;;;;10.43;92.15;102164.81;6224206;28;20057;-76
2021/05/28 07:42:00;;;;;;;31.70;15.25;;;;;;;10.67;90.50;102174.56;6223932;28;20052;-75
2021/05/28 07:45:01;;;;;;;30.88;15.02;;;;;;;10.46;92.33;102165.59;6224286;28;20078;-76
2021/05/28 07:48:02;;;;;;;25.58;15.20;;;;;;;10.56;92.14;102164.41;6223955;28;20065;-76
2021/05/28 07:51:03;;;;;;;22.38;13.52;;;;;;;10.47;91.13;102166.44;6224166;28;20054;-78
2021/05/28 07:54:05;;;;;;;23.67;13.77;;;;;;;10.49;91.50;102156.75;6223622;28;20053;-76
2021/05/28 07:57:08;;;;;;;21.17;13.88;;;;;;;10.59;91.69;102159.06;6199674;28;20480;-77
2021/05/28 08:00:11;;;;;;;20.33;12.68;;;;;;;10.78;88.65;102166.38;6198969;28;20527;-75
2021/05/28 08:03:13;;;;;;;18.13;12.75;;;;;;;10.72;89.72;102159.53;6197275;28;20413;-76
2021/05/28 08:06:14;;;;;;;27.42;14.50;;;;;;;10.71;90.92;102160.44;6199536;28;20062;-75
2021/05/28 08:09:15;;;;;;;21.42;13.80;;;;;;;10.91;88.25;102162.44;6198850;28;20077;-75
2021/05/28 08:12:17;;;;;;;21.75;14.15;;;;;;;10.92;87.68;102159.75;6197847;28;20144;-76
2021/05/28 08:15:19;;;;;;;25.73;15.52;;;;;;;10.93;87.60;102161.47;6199203;28;20073;-76
2021/05/28 08:18:20;;;;;;;28.67;16.92;;;;;;;10.91;88.46;102162.44;6198609;28;20046;-76
2021/05/28 08:21:21;;;;;;;28.98;17.50;;;;;;;11.04;88.55;102174.28;6198743;28;20058;-76
2021/05/28 08:24:22;;;;;;;27.30;17.85;;;;;;;11.09;87.12;102187.31;6198214;28;20206;-76
2021/05/28 08:27:23;;;;;;;25.25;18.20;;;;;;;11.22;85.18;102180.72;6198641;28;20057;-76
2021/05/28 08:30:24;;;;;;;31.08;19.42;;;;;;;11.13;86.33;102197.69;6198381;28;20053;-75
2021/05/28 08:33:25;;;;;;;29.80;20.15;;;;;;;11.02;87.03;102199.78;6197785;28;20631;-76
2021/05/28 08:36:26;;;;;;;29.67;19.60;;;;;;;10.97;88.95;102204.31;6196603;28;20058;-78
2021/05/28 08:39:27;;;;;;;25.90;17.75;;;;;;;11.10;85.56;102204.81;6197485;28;20081;-76
2021/05/28 08:42:29;;;;;;;31.55;17.25;;;;;;;10.83;87.71;102209.16;6197863;28;20058;-75
2021/05/28 08:45:34;;;;;;;24.42;15.55;;;;;;;10.80;88.75;102211.88;6198345;28;20050;-75
2021/05/28 08:48:35;;;;;;;27.80;14.43;;;;;;;10.70;88.62;102213.06;6198446;28;20054;-75
2021/05/28 08:51:36;;;;;;;21.10;11.65;;;;;;;10.77;89.58;102209.38;6198099;28;20098;-76
2021/05/28 08:54:37;;;;;;;18.27;9.55;;;;;;;10.77;86.57;102219.88;6197762;28;20056;-75
2021/05/28 08:57:39;;;;;;;12.95;8.50;;;;;;;10.81;86.79;102218.84;6197676;28;20081;-75
2021/05/28 09:00:42;;;;;;;13.85;7.18;;;;;;;10.66;86.73;102214.91;6197629;28;20058;-77
2021/05/28 09:03:43;;;;;;;27.23;8.35;;;;;;;10.62;89.57;102211.53;6214225;28;20096;-74
2021/05/28 09:06:45;;;;;;;13.60;7.03;;;;;;;10.72;90.09;102216.50;6211827;28;20054;-78
2021/05/28 09:09:46;;;;;;;13.55;7.10;;;;;;;11.00;86.40;102208.66;6198493;28;20054;-79
2021/05/28 09:12:49;;;;;;;10.98;6.63;;;;;;;11.26;84.13;102221.78;6221608;28;20042;-76
2021/05/28 09:16:02;;;;;;;15.38;7.53;;;;;;;11.04;85.58;102215.53;6222975;28;20176;-76
2021/05/28 09:19:03;;;;;;;12.45;6.22;;;;;;;11.12;84.02;102218.75;6214390;28;20054;-75
2021/05/28 09:22:07;;;;;;;12.55;7.03;;;;;;;11.07;84.90;102220.69;6195359;28;20502;-77
2021/05/28 09:25:08;;;;;;;15.40;7.10;;;;;;;11.23;83.66;102221.91;6197729;28;20161;-78
2021/05/28 09:28:11;;;;;;;11.20;6.65;;;;;;;11.24;86.95;102217.50;6198260;28;20046;-77
2021/05/28 09:31:15;;;;;;;13.70;7.38;;;;;;;11.42;82.49;102214.28;6197764;28;20090;-77
2021/05/28 09:34:27;;;;;;;17.70;7.20;;;;;;;11.29;83.49;102223.47;6196767;28;20104;-77
2021/05/28 09:37:39;;;;;;;14.93;7.05;;;;;;;11.22;84.09;102214.94;6215201;28;20540;-74
2021/05/28 09:40:43;;;;;;;9.27;5.35;;;;;;;11.48;82.85;102214.06;6221568;28;20054;-75
2021/05/28 09:43:44;;;;;;;11.27;5.85;;;;;;;11.57;82.10;102215.53;6221055;28;20049;-75
2021/05/28 09:47:11;;;;;;;11.13;6.07;;;;;;;11.80;82.53;102217.38;6223422;28;20050;-77
2021/05/28 09:50:14;;;;;;;11.23;5.75;;;;;;;11.85;82.45;102228.63;6227074;28;20057;-78
2021/05/28 09:53:29;;;;;;;13.98;5.43;;;;;;;11.87;83.79;102221.56;6226784;28;20104;-78
2021/05/28 09:56:32;;;;;;;15.90;5.82;;;;;;;11.85;81.44;102216.31;6226763;28;20398;-77
2021/05/28 09:59:45;;;;;;;10.50;5.72;;;;;;;11.84;81.55;102217.25;6225878;28;20505;-75
2021/05/28 10:02:45;;;;;;;9.82;5.53;;;;;;;11.72;81.78;102217.66;6225994;28;20496;-76
2021/05/28 10:05:48;;;;;;;12.68;6.25;;;;;;;12.04;82.27;102220.97;6226699;28;20065;-74
2021/05/28 10:08:49;;;;;;;13.27;6.57;;;;;;;11.96;82.56;102217.75;6226266;28;20042;-78
2021/05/28 10:11:50;;;;;;;12.30;6.95;;;;;;;12.19;81.95;102218.63;6225109;28;20072;-76
2021/05/28 10:14:52;;;;;;;10.68;7.30;;;;;;;12.25;77.70;102224.56;6226040;28;20394;-79
2021/05/28 10:17:54;;;;;;;12.32;7.63;;;;;;;12.21;77.24;102199.25;6220178;28;20049;-77
2021/05/28 10:20:55;;;;;;;15.45;7.43;;;;;;;12.25;78.97;102206.97;6224431;28;20066;-79
2021/05/28 10:23:58;;;;;;;16.30;6.88;;;;;;;12.43;78.12;102205.44;6218412;28;20402;-78
2021/05/28 10:27:00;;;;;;;12.48;7.07;;;;;;;12.49;77.79;102199.97;6225750;28;20129;-79
2021/05/28 10:30:13;;;;;;;19.23;8.85;;;;;;;12.44;78.57;102200.13;6226581;28;20459;-77
2021/05/28 10:33:18;;;;;;;11.77;5.90;;;;;;;12.32;78.98;102200.59;6218166;28;20043;-77
2021/05/28 10:36:39;;;;;;;11.52;5.93;;;;;;;12.54;79.81;102205.06;6225783;28;20099;-80
2021/05/28 10:39:45;;;;;;;13.50;6.50;;;;;;;12.79;76.46;102195.25;6233310;23;21385;-79
2021/05/28 10:42:57;;;;;;;10.48;5.28;;;;;;;12.66;77.78;102186.09;6200258;28;20054;-80
2021/05/28 10:46:03;;;;;;;12.82;5.18;;;;;;;12.82;77.36;102196.94;6201617;28;20493;-79
2021/05/28 10:49:10;;;;;;;10.23;5.05;;;;;;;12.74;79.66;102185.81;6202515;28;20054;-81
2021/05/28 10:52:29;;;;;;;11.73;4.63;;;;;;;12.86;78.27;102185.34;6202287;28;20133;-79
2021/05/28 10:55:30;;;;;;;12.37;5.70;;;;;;;12.75;80.17;102180.47;6200632;28;20973;-79
2021/05/28 10:58:52;;;;;;;11.68;5.85;;;;;;;13.03;75.97;102172.28;6201673;28;20293;-80
2021/05/28 11:01:56;;;;;;;9.65;5.35;;;;;;;13.39;75.06;102171.72;6202840;28;20054;-80
2021/05/28 11:04:58;;;;;;;15.93;6.18;;;;;;;13.43;75.93;102176.81;6201651;28;20132;-81
2021/05/28 11:07:59;;;;;;;11.88;5.40;;;;;;;13.79;74.28;102170.88;6202435;28;20050;-80
2021/05/28 11:11:00;;;;;;;10.73;5.45;;;;;;;14.00;75.31;102168.22;6201643;28;20060;-80
2021/05/28 11:14:05;;;;;;;7.95;4.93;;;;;;;14.11;72.77;102164.16;6200688;28;20454;-80
2021/05/28 11:17:13;;;;;;;13.45;5.32;;;;;;;13.91;76.88;102166.84;6201296;28;20072;-81
2021/05/28 11:20:24;;;;;;;14.13;5.60;;;;;;;14.28;72.04;102166.03;6201148;28;20058;-81
2021/05/28 11:23:24;;;;;;;14.27;5.45;;;;;;;14.39;73.69;102165.53;6201127;28;20056;-80
2021/05/28 11:26:27;;;;;;;10.30;4.85;;;;;;;14.69;73.10;102163.25;6200950;28;20046;-83
2021/05/28 11:29:29;;;;;;;7.57;4.30;;;;;;;14.86;69.33;102158.00;6201415;28;20069;-78
2021/05/28 11:32:33;;;;;;;10.20;4.15;;;;;;;14.86;71.60;102149.22;6200205;28;20042;-84
2021/05/28 11:35:40;;;;;;;11.98;4.22;;;;;;;15.19;68.03;102150.19;6201511;28;20078;-84
2021/05/28 11:38:43;;;;;;;8.35;3.42;;;;;;;15.71;67.71;102131.66;6201605;28;20089;-80
2021/05/28 11:41:46;;;;;;;7.90;3.63;;;;;;;16.19;69.45;102139.69;6200696;28;20054;-81
2021/05/28 11:44:53;;;;;;;7.60;3.17;;;;;;;16.32;64.84;102130.13;6201322;28;20058;-81
2021/05/28 11:47:55;;;;;;;5.45;2.90;;;;;;;16.01;64.49;102133.59;6201364;28;20050;-82
2021/05/28 11:50:58;;;;;;;10.20;3.65;;;;;;;15.69;67.28;102127.34;6201796;28;20417;-82
2021/05/28 11:53:59;;;;;;;13.45;3.75;;;;;;;16.42;63.23;102126.00;6200813;28;20088;-80
2021/05/28 11:57:02;;;;;;;7.32;3.00;;;;;;;16.68;61.89;102129.00;6201300;28;20054;-78
2021/05/28 12:00:08;;;;;;;10.93;3.10;;;;;;;16.18;65.27;102114.97;6202318;28;20501;-80
2021/05/28 12:03:10;;;;;;;9.45;3.05;;;;;;;15.67;65.71;102126.59;6201487;28;20051;-81
2021/05/28 12:06:11;;;;;;;7.22;2.70;;;;;;;15.57;66.29;102125.31;6200229;28;20054;-81
2021/05/28 12:09:12;;;;;;;5.57;2.30;;;;;;;15.81;65.28;102115.25;6199539;28;20065;-80
2021/05/28 12:12:13;;;;;;;8.18;2.70;;;;;;;15.72;63.99;102106.00;6200550;28;20495;-82
2021/05/28 12:15:14;;;;;;;7.38;2.80;;;;;;;15.72;64.39;102096.25;6201495;28;20118;-82
2021/05/28 12:18:19;;;;;;;6.45;2.40;;;;;;;16.37;62.97;102101.53;6200725;28;20061;-81
2021/05/28 12:21:23;;;;;;;6.95;3.03;;;;;;;16.38;62.66;102099.72;6201495;28;20181;-80
2021/05/28 12:24:24;;;;;;;5.82;2.63;;;;;;;16.67;66.47;102096.31;6200743;28;20051;-81
2021/05/28 12:27:26;;;;;;;5.25;3.00;;;;;;;16.98;62.30;102100.69;6200700;28;20058;-80
2021/05/28 12:30:27;;;;;;;5.22;2.53;;;;;;;16.58;62.80;102094.16;6201275;28;20519;-81
2021/05/28 12:33:32;;;;;;;8.57;2.53;;;;;;;16.05;65.13;102087.41;6202168;28;20038;-83
2021/05/28 12:36:35;;;;;;;3.67;2.05;;;;;;;16.27;65.48;102086.22;6206316;28;20057;-83
2021/05/28 12:39:36;;;;;;;9.90;2.28;;;;;;;16.64;64.50;102090.31;6201881;28;20061;-82
2021/05/28 12:42:36;;;;;;;8.88;1.90;;;;;;;17.32;55.29;102077.44;6203695;28;20149;-81
2021/05/28 12:45:41;;;;;;;6.50;2.08;;;;;;;17.59;55.53;102072.25;6201484;28;20137;-79
2021/05/28 12:48:48;;;;;;;4.97;1.75;;;;;;;17.88;58.07;102066.94;6200412;28;20047;-82
2021/05/28 12:51:49;;;;;;;4.18;2.17;;;;;;;18.23;56.40;102064.72;6199946;28;20054;-83
2021/05/28 12:54:58;;;;;;;4.82;1.63;;;;;;;18.12;57.20;102068.06;6200377;28;20050;-82
2021/05/28 12:58:00;;;;;;;3.35;1.55;;;;;;;18.56;54.58;102056.31;6200405;28;20161;-82
2021/05/28 13:01:03;;;;;;;5.05;1.70;;;;;;;18.76;53.38;102057.72;6204253;28;20057;-83
2021/05/28 13:04:05;;;;;;;4.22;1.55;;;;;;;18.70;57.12;102052.78;6202162;28;20490;-83
2021/05/28 13:07:06;;;;;;;3.28;1.90;;;;;;;18.64;51.50;102042.50;6199674;28;20054;-80
2021/05/28 13:10:14;;;;;;;6.15;1.83;;;;;;;18.33;52.25;102047.19;6199157;28;20060;-82
2021/05/28 13:13:21;;;;;;;4.85;1.80;;;;;;;18.06;54.41;102036.50;6199605;28;20101;-83
2021/05/28 13:16:27;;;;;;;5.70;2.17;;;;;;;17.69;57.26;102041.47;6199570;28;20101;-83
2021/05/28 13:19:30;;;;;;;2.78;1.58;;;;;;;18.30;52.37;102026.09;6199326;28;20058;-83
2021/05/28 13:22:34;;;;;;;7.65;2.20;;;;;;;18.68;54.52;102028.88;6198472;28;20046;-83
2021/05/28 13:25:38;;;;;;;5.82;1.60;;;;;;;19.01;54.75;102030.25;6198882;28;20055;-83
2021/05/28 13:28:39;;;;;;;6.50;1.80;;;;;;;18.72;50.97;102038.41;6198998;28;20050;-84
2021/05/28 13:31:42;;;;;;;8.07;2.00;;;;;;;17.74;53.32;102042.06;6199566;28;20519;-83
2021/05/28 13:34:44;;;;;;;3.72;1.70;;;;;;;16.94;57.32;102042.53;6199837;28;20593;-83
2021/05/28 13:37:45;;;;;;;7.20;1.70;;;;;;;16.73;57.66;102040.22;6200707;28;20077;-82
2021/05/28 13:40:48;;;;;;;10.90;2.05;;;;;;;16.42;58.29;102040.25;6199595;28;20076;-82
2021/05/28 13:43:50;;;;;;;9.73;1.90;;;;;;;16.10;60.87;102050.03;6199739;28;20054;-81
2021/05/28 13:46:50;;;;;;;3.42;1.60;;;;;;;16.22;59.74;102060.81;6199848;28;20054;-75
2021/05/28 13:49:53;;;;;;;5.50;1.67;;;;;;;16.20;59.07;102056.53;6201986;28;20113;-81
2021/05/28 13:52:54;;;;;;;3.55;1.48;;;;;;;16.38;59.34;102051.97;6202385;28;20058;-82
2021/05/28 13:55:56;;;;;;;1.10;0.90;;;;;;;17.22;55.97;102036.44;6201221;28;20050;-83
2021/05/28 13:58:57;;;;;;;1.67;1.05;;;;;;;17.94;54.43;102045.28;6200949;28;20054;-82
2021/05/28 14:01:58;;;;;;;5.22;1.20;;;;;;;18.36;54.92;102032.84;6200830;28;20073;-81